Extreme weather reports worldwide

Rain

Station
 
Location
 
Name
 
Wind
Knots
Gust
Knots
Vis
SM
Temp/Dew
C
Baro
inHg
METAR
 
KMWN 35 44 0 10/10 KMWN 280656Z 24035G44KT 0SM -SHRA FG VV000 10/10 RMK RAE00SHRAB00
YYY CYYY Mont-Joli, CA Mont Joli Airport 29 38 15/12 29.60 CYYY 280700Z 17029G38KT 10SM -RA OVC090 15/12 A2960 RMK AC8 SLP027 DENSITY ALT 600FT
RJOE JP Akeno Airport 24 36 0.93 23/21 29.38 RJOE 280612Z 18024G36KT 1500 +SHRA BR FEW008 SCT015 BKN025 23/21 Q0995 RMK 1ST008 3CU015 5CU025 A2940
OIM RJTO Izu Oshima, JP Oshima Airport 22 33 24/23 29.56 RJTO 280700Z 20022G33KT 9999 -SHRA FEW010 BKN013 24/23 Q1001
SIN WSSS Singapore, SG Singapore Changi Airport 19 29 1.86 28/25 29.73 WSSS 280710Z 16019G29KT 3000 -TSRA FEW010 FEW015CB SCT016TCU 28/25 Q1007 TEMPO TL0745 TSRA BECMG FM0800 TL0820 6000 NSW

Station
 
Location
 
Name
 
Wind
Knots
Gust
Knots
Vis
SM
Temp/Dew
C
Baro
inHg
METAR
 
MMD ROMD Minamidaitō, JP Minami-Daito Airport 16 26 29/27 29.65 ROMD 280708Z AUTO 21016G26KT 9999 -RA BKN009 BKN010 29/27 Q1004 RMK A2967
CAR KCAR Caribou, US Caribou Municipal Airport 15 26 13/10 29.74 KCAR 280654Z AUTO 15015G26KT 10SM -RA OVC017 13/10 A2974 RMK AO2 PK WND 15030/0615 SLP074 P0000 T01330100
RJTF Tokyo, JP Chofu Airport 14 26 26/22 29.50 RJTF 280700Z 18014G26KT 130V210 9999 -SHRA FEW010 BKN015 BKN150 26/22 Q0999
IXZ VOPB Port Blair, IN Vir Savarkar International Airport 15 25 1.68 31/26 29.70 VOPB 280700Z 21015G25KT 2700 RA SCT014 BKN080 31/26 Q1006 TEMPO 1400 +RA
YZV CYZV Sept-Îles, CA Sept-Îles Airport 17 24 15 7/7 29.82 CYZV 280700Z 08017G24KT 15SM -RA BKN006 OVC030 07/07 A2982 RMK SF6SC2 SLP102
VEHO 14 24 1.86 26/24 29.38 VEHO 280700Z 05014G24KT 3000 -RA FEW010 SCT018 FEW025CB OVC080 26/24 Q0995 NOSIG
RJTI Edogawa, Tokyo, JP Tokyo Heliport 12 23 1.86 23/22 29.53 RJTI 280700Z 19012G23KT 3000 -SHRA BR BKN003 BKN012 23/22 Q1000
YVO CYVO Val-d'Or, CA Val-d'Or Airport 14 21 6 13/13 29.31 CYVO 280700Z AUTO 32014G21KT 6SM RA BR OVC008 13/13 A2931 RMK PCPN 3.2MM PAST HR SLP934 DENSITY ALT 1900FT
YNM CYNM Matagami, CA Matagami Airport 11 21 9 12/12 29.37 CYNM 280720Z AUTO 35011G21KT 9SM -RA BKN007 OVC012 12/12 A2937 RMK PCPN 0.5MM PAST HR SLP952 DENSITY ALT 1500FT
PWM KPWM Portland, US Portland International Jetport 11 21 4 15/15 29.69 KPWM 280651Z AUTO 19011G21KT 4SM -RA BR OVC002 15/15 A2969 RMK AO2 SLP054 P0000 T01500150
YBC CYBC Baie-Comeau, CA Baie Comeau Airport 15 20 3 10/10 29.66 CYBC 280719Z AUTO 09015G20KT 3SM -RA BR OVC033 10/10 A2966 RMK PRESFR PCPN 1.5MM PAST HR SLP047
YKL CYKL Schefferville, CA Schefferville Airport 12 20 9 10/6 29.65 CYKL 280700Z AUTO 20012G20KT 9SM -RA CLR 10/06 A2965 RMK SLP050
GAU VEGT Guwahati, IN Lokpriya Gopinath Bordoloi International Airport 10 20 0.93 28/28 29.41 VEGT 280700Z 27010G20KT 1500 R02/2000 RA FEW008 SCT016 FEW025CB OVC080 28/28 Q0996 NOSIG
YXR CYXR Earlton, CA Earlton (Timiskaming Regional) Airport 13 19 9 13/11 29.49 CYXR 280700Z AUTO 30013G19KT 9SM -RA SCT017 SCT025 BKN050 OVC066 13/11 A2949 RMK SLP993 DENSITY ALT 1300FT
YUY CYUY Rouyn-Noranda, CA Rouyn Noranda Airport 13 19 12/12 29.41 CYUY 280700Z 32013G19KT 10SM -RA OVC008 12/12 A2941 RMK SC8 SLP968 DENSITY ALT 1500FT
YVP CYVP Kuujjuaq, CA Kuujjuaq Airport 9 19 15 1/0 29.68 CYVP 280700Z 35009G19KT 15SM -RA OVC005 01/M00 A2968 RMK ST8 SLP056
RKD KRKD Rockland, US Knox County Regional Airport 13 18 1.5 13/13 29.73 KRKD 280711Z AUTO 18013G18KT 1 1/2SM -RA BR OVC002 13/13 A2973 RMK AO2 P0001
AUG KAUG Augusta, US Augusta State Airport 9 18 7 16/16 29.69 KAUG 280711Z AUTO 16009G18KT 7SM -RA OVC005 17/16 A2969 RMK AO2 CIG 003V007 P0000 T01670161 $
PYM KPYM Plymouth, US Plymouth Municipal Airport 9 18 19/18 29.68 KPYM 280652Z AUTO 16009G18KT 120V200 10SM -RA OVC005 19/18 A2968 RMK AO2 LTG DSNT SE AND S RAE25B51 SLP053 P0006 T01940183
PVC KPVC Provincetown, US Provincetown Municipal Airport 11 17 8 17/17 29.71 KPVC 280716Z AUTO 16011G17KT 8SM -TSRA SCT002 BKN010 OVC050 17/17 A2971 RMK AO2 LTG DSNT SE AND S TSB10 CIG 007V014 P0005
ISS KIWI Wiscasset, US Wiscasset Airport 9 16 3 14/14 29.72 KIWI 280710Z AUTO 18009G16KT 3SM RA BR OVC004 14/14 A2972 RMK AO2 P0020 T01440144
YVV CYVV Wiarton, CA Wiarton Airport 8 16 2 12/12 29.64 CYVV 280700Z 28008G16KT 260V320 2SM -RA BR OVC005 12/12 A2964 RMK FG2SF6 SLP042
YLH CYLH Lansdowne House, CA Lansdowne House Airport 10 15 3 6/6 29.92 CYLH 280714Z AUTO 01010G15KT 3SM -RA BR OVC002 06/06 A2992 RMK SLP145
HMA USHH Khanty-Mansiysk, RU Khanty Mansiysk Airport 4 14 3.73 1/-2 29.56 USHH 280700Z 33002G07MPS 6000 -SHRASN BKN022CB 01/M02 Q1001 R24/290050 TEMPO 2000 SHRA OVC002CB
SBLB Macaé, BR Plataforma P-25 Helipad 28 0.87 28/ 30.00 SBLB 280702Z AUTO 08028KT 1400 +RA FEW043 BKN053 ///// Q1016 W28/S5
NGO RJGG Tokoname, JP Chubu Centrair International Airport 24 2.8 22/22 29.38 RJGG 280700Z 15024KT 4500 -SHRA BR FEW010 SCT020 BKN030 22/22 Q0995 BECMG 13034KT TEMPO 13034G46KT 1500 +SHRA BR FEW002 BKN004
EGOP 22 0.87 14/14 29.82 EGOP 280650Z AUTO 22022KT 1400 RA OVC003/// 14/14 Q1010
RJOP Komatsushima, JP JMSDF Komatsushima Heliport 20 2.49 18/16 29.41 RJOP 280702Z 32020KT 4000 SHRA BR SCT005 BKN012 OVC025 FEW025CB 18/16 Q0996 RMK 3ST005 5CU012 8CU025 1CB025 A2942 CB 15KM S MOV E
RJNS 19 4.35 23/23 29.53 RJNS 280700Z 19019KT 160V220 7000 -SHRA FEW000 SCT002 BKN004 23/23 Q1000
KTD RORK Kitadaitōjima, JP Kitadaito Airport 18 30/27 29.65 RORK 280700Z AUTO 21018KT 9999 -RA BKN010 30/27 Q1004
HND RJTT Ota, Tokyo, JP Tokyo Haneda International Airport 18 4.97 23/22 29.53 RJTT 280700Z 18018KT 8000 -SHRA FEW005 SCT015 BKN020 23/22 Q1000 TEMPO 19025G35KT 3000 SHRA BR FEW004 BKN008 RMK 1ST005 3CU015 5CU020 A2953
KIX RJBB Osaka, JP Kansai International Airport 18 1.24 17/17 29.35 RJBB 280700Z 07018KT 2000 SHRA BR FEW001 SCT005 BKN010 FEW020CB 17/17 Q0994 BECMG 34015KT TEMPO FEW003 BKN005 BKN008
VLY EGOV Angelsey, GB Anglesey Airport 18 2.36 13/13 29.73 EGOV 280650Z 17018KT 3800 RADZ SCT003 OVC012 13/13 Q1007 BECMG 20017KT 3000 DZ BKN002 RMK YLO2 BECMG AMB
ENDR 16 12/12 29.88 ENDR 280650Z AUTO 25016KT 1500NDV SHRA /// 12/12 Q1012 W///S3
BEB EGPL Balivanich, GB Benbecula Airport 16 11/10 29.65 EGPL 280650Z 17016KT 9999 -RA SCT009 BKN020 11/10 Q1004
SNN EINN Shannon, IE Shannon Airport 16 2.49 13/13 29.68 EINN 280700Z 24016KT 4000 -RADZ FEW002 BKN004 13/13 Q1005 TEMPO BKN006
KMG ZPPP Kunming, CN Kunming Changshui International Airport 16 24/16 29.94 ZPPP 280700Z 23008MPS 9999 -SHRA FEW026CB SCT026 BKN036 24/16 Q1014 BECMG TL0730 TSRA
MYD HKML Malindi, KE Malindi Airport 15 27/23 30.03 HKML 280700Z 19015KT 9999 -SHRA BKN022 27/23 Q1017
YGJ RJOH Yonago, JP Yonago Kitaro Airport / JASDF Miho Air Base 15 3.11 15/15 29.56 RJOH 280700Z 06015KT 5000 -RA BR FEW003 BKN005 BKN008 15/15 Q1001
KMQ RJNK Kanazawa, JP Komatsu Airport 15 1.86 14/14 29.50 RJNK 280700Z 04015KT 3000 SHRA FEW003 BKN005 BKN010 14/14 Q0999
BJF ENBS Båtsfjord, NO Båtsfjord Airport 15 2/1 30.03 ENBS 280650Z 14015KT 9999 -RA FEW013 SCT027 BKN035 02/01 Q1017
SHM RJBD Shirahama, JP Nanki Shirahama Airport 15 1.99 22/21 29.38 RJBD 280700Z 17015KT 150V230 3200 -SHRA BR FEW003 BKN006 BKN010 FEW020CB 22/21 Q0995
HAQ VRMH Haa Dhaalu Atoll, MV Hanimaadhoo Airport 15 5.59 29/26 29.76 VRMH 280700Z 30015KT 9000 -RA FEW017 FEW018CB BKN110 29/26 Q1008 CB WSW,W
CGP VGEG Chittagong, BD Shah Amanat International Airport 15 0.87 26/26 29.50 VGEG 280700Z 26015KT 1400 TSRA BKN008 SCT020CB OVC080 26/26 Q0999 TEMPO P/VIS
SHI RORS Shimojishima, JP Shimojishima Airport 14 3.73 25/24 29.62 RORS 280700Z 03014KT 6000 -RA SCT005 SCT040 BKN050 25/24 Q1003